Central Sierra Snow Lab Weather observations

Data are for 10 minute period ending at time listed.
 Day   Time    Incoming  Reflected   Ave.   Ave.    Ave.    Vector  Max.    Ave.    Total    Snow   
  of    of      Solar     Solar      Air    Rel.    Wind    Wind    Wind   Baro.   Precip.   Depth  
Year   Day     Radiation Radiation   Temp.  Humid.  Speed   Dir.    Gust   Press.                   
2017   (PST)    Kw/m2     Kw/m2       F       %      mph     deg.    mph     mb.     in.      in.   
----------------------------------------------------------------------------------------------------
 291    4:00    0.000     999.000     32.8     31     3.5      34     4.9   795.50   12.39   164.70  
 291    4:10    0.000     999.000     32.8     32     4.1      31     4.9   795.60   12.39   164.70  
 291    4:20    0.000     999.000     32.7     33     2.8      36     3.9   795.60   12.38   163.00  
 291    4:30    0.000     999.000     32.6     34     2.2      36     3.4   795.60   12.38   78.70  
 291    4:40    0.000     999.000     32.7     35     2.1      38     4.0   795.60   12.38   155.10  
 291    4:50    0.000     999.000     32.7     36     2.3      35     3.2   795.60   12.38   53.10  
 291    5:00    0.000     999.000     32.7     38     3.4      32     4.3   795.60   12.39   -2.90  
 291    5:10    0.000     999.000     32.7     40     2.3      36     3.3   795.50   12.39   -2.80  
 291    5:20    0.000     999.000     32.8     41     2.3      35     4.0   795.50   12.38   -2.80  
 291    5:30    0.000     999.000     32.8     44     3.5      30     4.5   795.50   12.39   -2.90  
 291    5:40    0.000     999.000     32.7     46     2.1      37     3.1   795.50   12.38   -2.80  
 291    5:50    0.000     999.000     32.7     48     3.2      33     4.5   795.40   12.39   -2.80  
 291    6:00    0.000     999.000     32.7     49     2.4      36     4.2   795.40   12.38   -2.80  
 291    6:10    0.000     999.000     32.7     50     1.9      38     2.9   795.40   12.38   -2.70  
 291    6:20    0.002     999.000     32.9     50     3.7      30     4.7   795.40   12.38   -2.90  
 291    6:30    0.004     999.000     33.2     49     3.8      29     4.7   795.40   12.39   -3.00  
 291    6:40    0.007     999.000     33.1     50     4.0      30     4.8   795.40   12.39   -2.90  
 291    6:50    0.009     999.000     33.3     49     3.4      33     4.8   795.50   12.39   -2.90  
 291    7:00    0.010     999.000     33.1     50     3.4      30     4.7   795.50   12.39   -2.90  
 291    7:10    0.012     999.000     33.1     51     3.8      28     4.3   795.60   12.39   -2.80  
 291    7:20    0.013     999.000     33.4     51     3.0      31     3.9   795.60   12.39   -2.80  
 291    7:30    0.014     999.000     34.4     49     2.5      33     3.5   795.70   12.39   -2.80  
 291    7:40    0.019     999.000     35.9     45     1.7      39     2.7   795.80   12.39   -2.90  
 291    7:50    0.022     999.000     37.7     42     1.4      49     2.2   795.80   12.39   -2.90  
 291    8:00    0.034     999.000     39.6     39     1.3      37     2.3   795.90   12.39   -3.00  
 291    8:10    0.023     999.000     41.1     37     1.8      47     3.1   795.90   12.39   -3.00  
 291    8:20    0.032     999.000     43.0     34     1.5      49     2.9   795.90   12.39   -3.00  
 291    8:30    0.041     999.000     44.4     33     0.6      45     2.0   795.90   12.39   -2.90  
 291    8:40    0.238     999.000     46.4     32     0.2      36     1.9   796.00   12.40   -2.90  
 291    8:50    0.414     999.000     49.4     31     0.3      30     1.3   796.00   12.40   -3.20  
 291    9:00    0.440     999.000     53.9     22     0.3     341     2.5   796.00   12.38   48.30  
 291    9:10    0.466     999.000     57.1     20     0.1     330     1.3   795.90   12.38   91.20  
 291    9:20    0.490     999.000     58.6     19     0.6     313     2.9   795.90   12.39   164.40  
 291    9:30    0.516     999.000     59.6     17     1.5     187     4.0   795.80   12.38   153.90  
 291    9:40    0.547     999.000     60.1     15     1.4     166     3.4   795.70   12.38   -3.60  
 291    9:50    0.578     999.000     60.8     15     2.2     248     6.8   795.70   12.38    5.10  
 291   10:00    0.598     999.000     61.8     14     1.8     174     4.8   795.70   12.38   -3.30  
 291   10:10    0.605     999.000     62.8     14     1.9     226     4.3   795.60   12.38   -4.60  
 291   10:20    0.609     999.000     63.1     14     2.3     245     5.7   795.60   12.38   -4.50  
 291   10:30    0.622     999.000     63.2     14     2.4     266     7.4   795.50   12.38   -4.50  
 291   10:40    0.635     999.000     63.0     14     2.5     288    11.1   795.50   12.38   -4.70  
 291   10:50    0.647     999.000     63.6     14     2.5     217     5.6   795.50   12.39   -4.40  
 291   11:00    0.658     999.000     64.5     14     2.2     209     6.6   795.40   12.38   -4.40  
 291   11:10    0.666     999.000     64.3     13     3.3     190     6.1   795.30   12.38   -4.30  
 291   11:20    0.672     999.000     64.4     14     2.5     191     5.9   795.20   12.38   -4.50  
 291   11:30    0.677     999.000     64.8     14     2.9     212     6.5   795.10   12.38   -4.50  
 291   11:40    0.681     999.000     65.4     14     2.3     221     6.2   795.10   12.38   -4.60  
 291   11:50    0.684     999.000     65.6     14     2.7     223     7.2   795.10   12.38   -4.50  
 291   12:00    0.685     999.000     65.4     14     2.5     228     5.7   795.00   12.38   -4.60  
 291   12:10    0.685     999.000     65.4     14     2.5     236     6.0   794.80   12.38   -4.60  
 291   12:20    0.683     999.000     65.4     14     4.0     222     9.7   794.70   12.38   -4.50  
 291   12:30    0.677     999.000     66.1     14     2.5     232     7.0   794.60   12.38   -4.50  
 291   12:40    0.667     999.000     66.3     15     3.7     237     9.4   794.50   12.37   -4.50  
 291   12:50    0.657     999.000     65.5     16     3.1     227    11.4   794.40   12.38   -4.30  
 291   13:00    0.644     999.000     65.2     17     3.4     236    10.3   794.30   12.38   -4.20  
 291   13:10    0.634     999.000     64.9     17     3.7     236     8.0   794.20   12.38   -4.10  
 291   13:20    0.620     999.000     64.6     16     4.1     242     9.7   794.10   12.38   -4.10  
 291   13:30    0.605     999.000     64.8     16     2.9     225     6.8   794.10   12.38   -4.00  
 291   13:40    0.590     999.000     65.0     15     3.8     251     9.6   794.00   12.38   -4.10  
 291   13:50    0.572     999.000     64.6     15     4.2     247    10.3   793.90   12.38   -4.00  
 291   14:00    0.552     999.000     64.8     15     3.3     239     8.9   793.90   12.39   -3.90  
 291   14:10    0.531     999.000     64.5     15     3.9     237     9.9   793.80   12.38   -4.00  
 291   14:20    0.509     999.000     64.6     15     3.0     219     7.3   793.80   12.38   -3.90  
 291   14:30    0.474     999.000     64.1     16     3.4     211     9.7   793.80   12.38   -3.80  
 291   14:40    0.173     999.000     63.4     16     3.8     231    10.3   793.70   12.38   11.70  
 291   14:50    0.296     999.000     63.1     17     4.0     248    13.3   793.70   12.38   163.70  
 291   15:00    0.407     999.000     62.7     18     3.5     228     9.0   793.70   12.38   164.10  
 291   15:10    0.107     999.000     62.6     18     3.3     237     8.8   793.70   12.38   164.00  
 291   15:20    0.121     999.000     62.3     18     4.2     258     9.5   793.60   12.38   164.20  
 291   15:30    0.324     999.000     61.7     18     3.8     247    11.0   793.60   12.38   164.30  
 291   15:40    0.248     999.000     61.6     18     3.1     240     8.9   793.60   12.38   164.40  
 291   15:50    0.068     999.000     61.4     18     2.8     239     8.6   793.50   12.38   164.40  
 291   16:00    0.114     999.000     61.2     18     2.5     239     6.4   793.40   12.38   164.50  
 291   16:10    0.204     999.000     61.1     19     2.5     223     5.9   793.30   12.38   164.50  
 291   16:20    0.166     999.000     60.5     19     2.8     220     7.5   793.30   12.38   164.50  
 291   16:30    0.143     999.000     59.6     20     2.4     221     7.4   793.30   12.38   164.50  
 291   16:40    0.033     999.000     58.2     21     2.2     215     6.8   793.30   12.38   164.40  
 291   16:50    0.020     999.000     57.0     22     2.2     225     5.8   793.30   12.37   164.30  
 291   17:00    0.015     999.000     56.2     23     2.1     215     5.8   793.20   12.38   163.90  
 291   17:10    0.011     999.000     55.3     23     1.8     211     3.7   793.20   12.38   164.10  
 291   17:20    0.006     999.000     54.1     24     1.9     204     8.1   793.30   12.38   164.50  
 291   17:30    0.002     999.000     53.0     25     1.6     196     4.3   793.30   12.38   164.50  
 291   17:40    0.001     999.000     52.0     26     1.2     183     2.9   793.30   12.38   164.50  
 291   17:50    0.000     999.000     51.2     27     0.8     168     2.2   793.30   12.37   164.60  
 291   18:00    0.000     999.000     50.6     28     0.7     251     3.7   793.30   12.37   164.40  
 291   18:10    0.000     999.000     49.9     28     0.3      35     1.5   793.30   12.37   144.40  
 291   18:20    0.000     999.000     48.9     29     0.9      63     1.8   793.30   12.37    3.90  
 291   18:30    0.000     999.000     47.9     30     1.4      44     2.6   793.30   12.38   -3.20  
 291   18:40    0.000     999.000     46.9     31     2.1      30     3.4   793.30   12.38   -3.20  
 291   18:50    0.000     999.000     45.9     33     2.6      31     3.5   793.40   12.38   -3.10  
 291   19:00    0.000     999.000     45.0     34     2.3      35     3.3   793.40   12.38   -3.10  
 291   19:10    0.000     999.000     44.5     35     2.6      33     4.5   793.40   12.38   -2.90  
 291   19:20    0.000     999.000     44.3     35     2.4      36     3.7   793.30   12.38   -2.80  
 291   19:30    0.000     999.000     44.1     36     2.6      36     4.3   793.30   12.38   -2.80  
 291   19:40    0.000     999.000     43.8     36     2.7      32     3.9   793.30   12.38   -2.80  
 291   19:50    0.000     999.000     43.4     36     3.0      31     4.3   793.30   12.38   -2.90  
 291   20:00    0.000     999.000     43.0     37     3.1      32     4.2   793.20   12.38   -3.00  
 291   20:10    0.000     999.000     42.7     38     2.7      33     4.2   793.20   12.38   -2.80  
 291   20:20    0.000     999.000     42.5     38     2.9      31     4.1   793.10   12.39   -2.90  
 291   20:30    0.000     999.000     42.5     38     2.2      31     3.6   793.10   12.38   -2.90  
 291   20:40    0.000     999.000     42.3     38     2.4      33     3.9   793.00   12.38   -2.90  
 291   20:50    0.000     999.000     42.2     38     3.0      31     4.7   793.00   12.38   -3.00  
 291   21:00    0.000     999.000     41.9     39     3.3      30     4.2   793.00   12.38   -3.00  
 291   21:10    0.000     999.000     41.4     40     3.5      30     4.3   792.90   12.38   -3.00  
 291   21:20    0.000     999.000     40.9     41     2.9      32     5.0   793.00   12.38   -3.00  
 291   21:30    0.000     999.000     40.5     42     3.2      28     5.8   793.00   12.38   -2.90  
 291   21:40    0.000     999.000     40.3     42     3.4      31     4.3   792.90   12.38   -3.00  
 291   21:50    0.000     999.000     39.9     43     3.9      28     4.7   792.90   12.38   -3.00  
 291   22:00    0.000     999.000     39.5     43     2.7      36     4.7   792.90   12.38   -3.10  
 291   22:10    0.000     999.000     39.5     43     2.8      32     5.7   792.80   12.38   -3.10  
 291   22:20    0.000     999.000     39.5     44     3.1      30     4.8   792.70   12.38   -3.10  
 291   22:30    0.000     999.000     39.4     44     2.6      35     4.8   792.80   12.38   -3.00  
 291   22:40    0.000     999.000     39.6     44     2.0      39     3.6   792.80   12.38   -3.00  
 291   22:50    0.000     999.000     39.9     43     1.9      40     3.8   792.80   12.38   -3.00  
 291   23:00    0.000     999.000     40.3     42     2.1      40     4.1   792.70   12.38   -3.00  
 291   23:10    0.000     999.000     40.4     41     2.2      39     4.3   792.60   12.38   -3.00  
 291   23:20    0.000     999.000     40.1     41     2.7      29     4.0   792.50   12.38   -3.00  
 291   23:30    0.000     999.000     39.6     42     2.5      31     4.3   792.50   12.38   -3.00  
 291   23:40    0.000     999.000     39.5     41     2.2      39     4.1   792.40   12.38   -2.90  
 291   23:50    0.000     999.000     39.5     40     2.6      36     4.0   792.30   12.38   -2.90  
 292    0:00    0.000     999.000     39.1     38     2.8      32     4.1   792.20   12.38   -2.90  
 292    0:10    0.000     999.000     38.7     38     2.6      36     4.0   792.20   12.38   -3.00  
 292    0:20    0.000     999.000     38.7     37     2.4      39     4.0   792.10   12.38   -2.90  
 292    0:30    0.000     999.000     38.8     37     2.2      39     4.3   792.10   12.38   -3.00  
 292    0:40    0.000     999.000     39.1     35     2.1      41     4.0   792.10   12.38   -2.90  
 292    0:50    0.000     999.000     40.3     32     1.4      54     3.6   792.00   12.38   -2.90  
 292    1:00    0.000     999.000     40.3     32     1.1      56     3.5   792.00   12.38   -3.00  
 292    1:10    0.000     999.000     40.0     32     1.1      52     3.1   791.90   12.38   -2.90  
 292    1:20    0.000     999.000     40.3     32     1.1      48     2.4   791.90   12.38   -2.90  
 292    1:30    0.000     999.000     40.9     31     1.0      82     2.3   791.90   12.38   -2.90  
 292    1:40    0.000     999.000     40.8     32     1.6      53     3.6   791.70   12.38   -2.90  
 292    1:50    0.000     999.000     40.8     33     1.6      63     4.8   791.60   12.39   -2.90  
 292    2:00    0.000     999.000     40.1     34     1.8      18     4.1   791.40   12.38   -3.00  
 292    2:10    0.000     999.000     39.8     34     0.9      21     3.2   791.40   12.39   -3.00  
 292    2:20    0.000     999.000     39.4     35     1.5     314     3.8   791.20   12.38   -3.00  
 292    2:30    0.000     999.000     39.4     36     0.8     332     4.2   791.20   12.38   -3.00  
 292    2:40    0.000     999.000     38.6     38     0.9      78     2.8   791.10   12.39   -2.80  
 292    2:50    0.000     999.000     38.5     38     0.5      79     3.7   791.00   12.39   -2.90  
 292    3:00    0.000     999.000     39.4     34     1.1     138     3.6   791.00   12.38   -3.00  
 292    3:10    0.000     999.000     39.0     34     1.7      32     3.1   790.90   12.39   -3.00  
 292    3:20    0.000     999.000     38.0     35     1.7      45     3.4   790.90   12.39   -2.90  
 292    3:30    0.000     999.000     38.1     35     1.7      42     3.3   790.80   12.38   -2.90  
 292    3:40    0.000     999.000     38.0     35     1.4      49     3.2   790.80   12.38   -3.00  
 292    3:50    0.000     999.000     38.0     36     1.3      59     3.2   790.80   12.38   -2.90  

Return to Central Sierra Snow Lab graphs page.


Western Regional Climate Center,wrcc@dri.edu